CLB2 weather

Plattsville (Lubitz Flying Field)
Ontario, Canada

Public forecast

Using degrees Celsius for public forecast. Weather courtesy of forecast.io.

Closest aviation weather report (METAR) to Plattsville (Lubitz Flying Field)

Closest report is Waterloo Airport, 11.9 nm (22.0 km) NE. Retrieved 2020/06/02 04:00 UTC (20 minutes ago):

CYKF 020400Z AUTO 22005KT 9SM BKN110 OVC140 16/04 A3006 RMK SLP180 DENSITY ALT 1200FT

Closest aviation forecast (TAF) to Plattsville (Lubitz Flying Field)

Closest forecast is Waterloo Airport, 11.9 nm (22.0 km) NE. Retrieved 2020-06-02 02:45 UTC (2 hours ago):

TAF TAF CYKF 020142Z 0202/0214 21007KT P6SM FEW120 BKN240 FM020500 24008KT P6SM BKN080 OVC120 FM020800 22008KT P6SM VCSH OVC080 TEMPO 0209/0211 P6SM -SHRA OVC060 FM021100 20012KT P6SM SCT020 OVC050 TEMPO 0211/0213 6SM -SHRA BR BKN020 OVC040 RMK FCST BASED ON AUTO OBS NXT FCST BY 020800Z